Time;durP1;ratioP1;P1;durP2;ratioP2;P2;SDS_P1;SDS_P2;PMS_P1;PMS_P2;Temp;Humidity;BMP_temperature;BMP_pressure;BME280_temperature;BME280_humidity;BME280_pressure;Samples;Min_cycle;Max_cycle;Signal;HPM_P1;HPM_P2
2022/08/05 00:01:21;;;;;;;8.90;3.17;;;21.60;84.80;;;;;;4990748;28;20019;-76
2022/08/05 00:03:48;;;;;;;9.23;3.33;;;21.60;84.30;;;;;;4989842;28;20046;-75
2022/08/05 00:06:14;;;;;;;8.98;3.25;;;21.50;84.70;;;;;;4971664;28;20037;-77
2022/08/05 00:08:40;;;;;;;7.13;3.42;;;21.50;85.10;;;;;;4990323;28;20022;-76
2022/08/05 00:11:08;;;;;;;8.98;3.10;;;21.40;84.80;;;;;;4990461;28;20030;-77
2022/08/05 00:13:36;;;;;;;10.00;3.78;;;21.50;84.90;;;;;;4990625;28;20026;-76
2022/08/05 00:16:04;;;;;;;5.60;3.08;;;21.40;85.20;;;;;;4990000;28;20034;-77
2022/08/05 00:18:30;;;;;;;6.13;2.53;;;21.40;83.80;;;;;;4990499;28;20034;-76
2022/08/05 00:20:56;;;;;;;7.10;2.88;;;21.40;83.80;;;;;;4989711;28;20041;-76
2022/08/05 00:23:22;;;;;;;7.47;2.80;;;21.30;83.80;;;;;;4990207;28;20026;-75
2022/08/05 00:25:49;;;;;;;5.05;2.20;;;21.30;84.80;;;;;;4989339;28;20485;-76
2022/08/05 00:28:15;;;;;;;6.50;2.50;;;21.20;83.90;;;;;;4989984;28;20042;-76
2022/08/05 00:30:41;;;;;;;7.75;3.28;;;21.20;83.60;;;;;;4989776;28;20089;-77
2022/08/05 00:33:07;;;;;;;7.13;2.78;;;21.10;85.20;;;;;;4990231;28;20129;-75
2022/08/05 00:35:33;;;;;;;7.57;3.90;;;21.10;84.40;;;;;;4988819;28;20034;-75
2022/08/05 00:37:58;;;;;;;6.88;3.38;;;21.00;84.90;;;;;;4989214;28;20038;-76
2022/08/05 00:40:27;;;;;;;4.05;2.20;;;21.00;84.50;;;;;;4990327;28;20029;-77
2022/08/05 00:42:53;;;;;;;8.15;3.35;;;20.90;84.00;;;;;;4989543;28;20026;-77
2022/08/05 00:45:19;;;;;;;6.90;3.40;;;20.90;84.40;;;;;;4989809;28;20030;-77
2022/08/05 00:47:45;;;;;;;6.38;3.13;;;20.90;86.00;;;;;;4990525;28;20038;-77
2022/08/05 00:50:11;;;;;;;6.28;3.08;;;20.90;85.70;;;;;;4989655;28;20023;-77
2022/08/05 00:52:37;;;;;;;8.30;3.80;;;20.90;84.40;;;;;;4988256;28;20037;-76
2022/08/05 00:55:03;;;;;;;8.65;3.40;;;20.90;84.30;;;;;;4988907;28;20030;-77
2022/08/05 00:57:29;;;;;;;6.60;2.40;;;20.90;85.00;;;;;;4989956;28;20033;-77
2022/08/05 00:59:54;;;;;;;12.40;3.70;;;20.90;83.20;;;;;;4972894;28;20026;-76
2022/08/05 01:02:20;;;;;;;9.70;4.43;;;20.90;84.20;;;;;;4989746;28;20033;-76
2022/08/05 01:04:46;;;;;;;9.98;4.18;;;20.90;85.30;;;;;;4988285;28;20050;-77
2022/08/05 01:07:12;;;;;;;10.43;4.72;;;20.80;85.90;;;;;;4989101;28;20023;-76
2022/08/05 01:09:38;;;;;;;10.68;3.45;;;20.80;85.10;;;;;;4973884;28;20473;-77
2022/08/05 01:12:19;;;;;;;6.50;3.15;;;20.80;84.90;;;;;;4990636;28;20026;-77
2022/08/05 01:14:55;;;;;;;9.02;3.75;;;20.70;85.10;;;;;;4975727;28;20029;-77
2022/08/05 01:17:36;;;;;;;7.75;4.05;;;20.70;85.70;;;;;;4994780;28;20076;-77
2022/08/05 01:20:12;;;;;;;7.38;3.97;;;20.70;85.70;;;;;;4996253;28;20030;-77
2022/08/05 01:23:02;;;;;;;7.63;3.40;;;20.70;85.90;;;;;;4977378;28;20117;-77
2022/08/05 01:25:45;;;;;;;7.97;2.85;;;20.70;85.40;;;;;;4993260;28;20030;-77
2022/08/05 01:28:26;;;;;;;9.85;4.10;;;20.70;83.60;;;;;;4993678;28;20061;-77
2022/08/05 01:30:58;;;;;;;9.93;4.97;;;20.70;85.20;;;;;;4993176;28;20026;-78
2022/08/05 01:33:30;;;;;;;7.35;4.05;;;20.70;85.30;;;;;;4993739;28;20030;-77
2022/08/05 01:35:58;;;;;;;7.45;3.90;;;20.70;85.80;;;;;;4992819;28;20034;-77
2022/08/05 01:38:25;;;;;;;12.13;4.43;;;20.70;85.70;;;;;;4992218;28;20080;-77
2022/08/05 01:40:52;;;;;;;12.57;4.30;;;20.70;85.50;;;;;;4992648;28;20018;-77
2022/08/05 01:43:20;;;;;;;10.63;5.38;;;20.60;86.50;;;;;;4992717;28;20019;-77
2022/08/05 01:45:47;;;;;;;10.57;4.40;;;20.70;86.40;;;;;;4992727;28;20023;-78
2022/08/05 01:48:15;;;;;;;10.02;4.63;;;20.70;85.80;;;;;;4992344;28;20397;-77
2022/08/05 01:50:41;;;;;;;8.85;5.30;;;20.70;86.20;;;;;;4992218;28;20022;-77
2022/08/05 01:53:11;;;;;;;11.50;5.50;;;20.70;86.20;;;;;;4991705;28;20050;-78
2022/08/05 01:55:39;;;;;;;9.93;4.57;;;20.80;85.90;;;;;;4990636;28;20041;-78
2022/08/05 01:58:07;;;;;;;12.50;5.50;;;20.80;86.00;;;;;;4991659;28;20034;-78
2022/08/05 02:00:36;;;;;;;12.07;4.72;;;20.80;86.00;;;;;;4992359;28;20019;-78
2022/08/05 02:03:15;;;;;;;8.27;4.50;;;20.80;86.10;;;;;;4991649;28;20080;-78
2022/08/05 02:05:43;;;;;;;13.05;4.75;;;20.70;86.30;;;;;;4991973;28;20121;-77
2022/08/05 02:08:11;;;;;;;9.05;4.50;;;20.70;86.30;;;;;;4991995;28;20019;-77
2022/08/05 02:10:44;;;;;;;10.93;4.93;;;20.80;86.20;;;;;;4991773;28;20026;-76
2022/08/05 02:13:52;;;;;;;8.98;4.32;;;20.80;86.00;;;;;;4991434;28;20085;-75
2022/08/05 02:16:28;;;;;;;11.52;4.82;;;20.80;85.70;;;;;;4991150;28;20054;-75
2022/08/05 02:18:59;;;;;;;9.30;4.53;;;20.80;85.80;;;;;;4990884;28;20023;-76
2022/08/05 02:21:32;;;;;;;8.95;4.18;;;20.80;86.00;;;;;;4991771;28;20076;-76
2022/08/05 02:24:06;;;;;;;8.05;3.95;;;20.90;85.70;;;;;;4992245;28;20454;-76
2022/08/05 02:26:40;;;;;;;9.68;4.53;;;20.90;85.40;;;;;;4992344;28;20031;-75
2022/08/05 02:29:11;;;;;;;11.35;4.95;;;20.80;85.60;;;;;;4991699;28;20037;-75
2022/08/05 02:31:37;;;;;;;;;;;20.90;85.50;;;;;;4996733;28;20046;-77
2022/08/05 02:34:07;;;;;;;8.05;4.32;;;20.90;85.40;;;;;;4996097;28;20364;-76
2022/08/05 02:36:34;;;;;;;;;;;20.90;85.40;;;;;;4992360;28;20042;-76
2022/08/05 02:39:03;;;;;;;9.18;4.50;;;20.90;85.40;;;;;;4991799;28;19949;-75
2022/08/05 02:41:31;;;;;;;11.18;4.90;;;20.90;85.30;;;;;;4991252;28;20037;-77
2022/08/05 02:43:58;;;;;;;10.63;4.97;;;20.90;85.30;;;;;;4990394;28;20026;-76
2022/08/05 02:46:26;;;;;;;9.40;4.10;;;20.90;85.30;;;;;;4974347;28;20029;-76
2022/08/05 02:48:52;;;;;;;11.43;5.03;;;21.00;85.50;;;;;;4990228;28;20034;-77
2022/08/05 02:51:19;;;;;;;8.32;4.05;;;20.90;85.70;;;;;;4991236;28;20027;-76
2022/08/05 02:53:46;;;;;;;13.23;5.90;;;20.90;85.30;;;;;;4990598;28;20030;-76
2022/08/05 02:56:13;;;;;;;6.57;4.32;;;20.90;85.00;;;;;;4991280;28;20042;-75
2022/08/05 02:58:42;;;;;;;7.82;3.38;;;20.90;85.50;;;;;;4989809;28;20026;-77
2022/08/05 03:01:15;;;;;;;13.60;4.80;;;20.90;85.30;;;;;;4991016;28;20062;-76
2022/08/05 03:03:42;;;;;;;12.60;4.57;;;20.80;85.50;;;;;;4990756;28;20402;-75
2022/08/05 03:06:10;;;;;;;11.93;4.57;;;20.80;85.20;;;;;;4990853;28;20101;-76
2022/08/05 03:08:40;;;;;;;10.23;5.30;;;20.80;85.70;;;;;;4990409;28;20150;-77
2022/08/05 03:11:23;;;;;;;8.23;4.35;;;20.70;85.70;;;;;;4990473;28;20085;-77
2022/08/05 03:13:49;;;;;;;9.82;5.18;;;20.70;85.90;;;;;;4990458;28;20408;-76
2022/08/05 03:16:15;;;;;;;10.50;4.68;;;20.70;86.00;;;;;;4990150;28;20045;-76
2022/08/05 03:18:41;;;;;;;8.48;5.00;;;20.70;86.30;;;;;;4990315;28;20034;-76
2022/08/05 03:21:08;;;;;;;9.68;5.13;;;20.80;86.30;;;;;;4990495;28;20022;-76
2022/08/05 03:23:35;;;;;;;8.82;4.25;;;20.80;86.30;;;;;;4990014;28;20023;-76
2022/08/05 03:26:01;;;;;;;7.45;4.50;;;20.80;86.10;;;;;;4990433;28;20062;-76
2022/08/05 03:28:28;;;;;;;10.63;4.85;;;20.80;86.10;;;;;;4990128;28;20073;-75
2022/08/05 03:30:55;;;;;;;9.20;4.00;;;20.90;86.10;;;;;;4990155;28;20563;-77
2022/08/05 03:33:21;;;;;;;11.60;4.18;;;20.90;85.90;;;;;;4990093;28;20509;-77
2022/08/05 03:35:47;;;;;;;7.82;3.80;;;20.90;85.90;;;;;;4989729;28;20038;-76
2022/08/05 03:38:14;;;;;;;9.77;5.28;;;20.90;85.90;;;;;;4973297;28;20022;-76
2022/08/05 03:40:41;;;;;;;10.85;4.80;;;20.90;86.00;;;;;;4990350;28;20125;-76
2022/08/05 03:43:06;;;;;;;12.57;5.03;;;20.90;86.20;;;;;;4991714;28;20058;-76
2022/08/05 03:45:32;;;;;;;8.60;4.50;;;20.90;85.90;;;;;;4991804;28;20485;-76
2022/08/05 03:47:57;;;;;;;11.32;5.15;;;20.90;85.90;;;;;;4992617;28;20109;-76
2022/08/05 03:50:27;;;;;;;11.98;5.15;;;20.90;85.70;;;;;;4991143;28;20541;-77
2022/08/05 03:53:00;;;;;;;7.93;4.20;;;20.90;85.90;;;;;;4970570;28;20029;-76
2022/08/05 03:55:34;;;;;;;14.35;5.78;;;20.90;86.00;;;;;;4970084;28;20030;-76
2022/08/05 03:58:00;;;;;;;11.63;4.78;;;20.90;85.90;;;;;;4956830;28;20023;-76
2022/08/05 04:00:30;;;;;;;11.95;5.53;;;20.80;86.00;;;;;;4990034;28;20030;-76
2022/08/05 04:02:58;;;;;;;9.17;3.87;;;20.80;86.20;;;;;;4989133;28;20022;-75
2022/08/05 04:05:27;;;;;;;9.82;4.70;;;20.80;86.20;;;;;;4989957;28;20022;-76
2022/08/05 04:07:53;;;;;;;9.80;4.23;;;20.80;86.30;;;;;;4989561;28;20516;-75
2022/08/05 04:10:19;;;;;;;12.13;5.07;;;20.80;86.20;;;;;;4989716;28;20265;-76
2022/08/05 04:12:45;;;;;;;9.80;5.03;;;20.80;86.30;;;;;;4990138;28;20025;-76
2022/08/05 04:15:11;;;;;;;8.90;4.50;;;20.70;86.40;;;;;;4988824;28;20034;-75
2022/08/05 04:17:37;;;;;;;8.80;4.80;;;20.70;86.30;;;;;;4988889;28;20034;-76
2022/08/05 04:20:04;;;;;;;8.63;5.38;;;20.70;86.60;;;;;;4972637;28;20026;-77
2022/08/05 04:22:29;;;;;;;9.57;4.72;;;20.70;86.80;;;;;;4989861;28;20042;-76
2022/08/05 04:24:55;;;;;;;6.65;3.97;;;20.70;87.10;;;;;;4988375;28;20030;-76
2022/08/05 04:27:20;;;;;;;8.18;4.53;;;20.70;87.40;;;;;;4988909;28;20464;-77
2022/08/05 04:29:46;;;;;;;7.57;4.47;;;20.70;87.10;;;;;;4989507;28;20027;-77
2022/08/05 04:32:12;;;;;;;9.10;4.22;;;20.60;87.00;;;;;;4989656;28;20061;-76
2022/08/05 04:34:37;;;;;;;11.13;5.45;;;20.70;87.10;;;;;;4972367;28;20026;-76
2022/08/05 04:37:03;;;;;;;8.50;4.55;;;20.60;87.10;;;;;;4988929;28;20493;-76
2022/08/05 04:39:30;;;;;;;7.55;4.05;;;20.60;86.50;;;;;;4989510;28;20031;-76
2022/08/05 04:41:55;;;;;;;12.23;4.55;;;20.50;86.70;;;;;;4989843;28;20076;-75
2022/08/05 04:44:21;;;;;;;10.02;3.85;;;20.50;87.20;;;;;;4992866;28;20416;-76
2022/08/05 04:46:46;;;;;;;7.97;4.60;;;20.50;87.00;;;;;;4993005;28;20026;-76
2022/08/05 04:49:12;;;;;;;7.80;4.65;;;20.50;87.10;;;;;;4975942;28;20022;-75
2022/08/05 04:51:38;;;;;;;10.55;4.70;;;20.50;87.50;;;;;;4993703;28;20026;-75
2022/08/05 04:54:03;;;;;;;10.00;4.80;;;20.50;87.40;;;;;;4993042;28;20030;-76
2022/08/05 04:56:29;;;;;;;9.13;4.45;;;20.50;87.60;;;;;;4993634;28;20113;-76
2022/08/05 04:58:55;;;;;;;7.80;4.60;;;20.50;87.90;;;;;;4993378;28;20033;-76
2022/08/05 05:01:20;;;;;;;9.15;4.00;;;20.50;87.60;;;;;;4992646;28;20061;-76
2022/08/05 05:03:46;;;;;;;9.48;4.10;;;20.50;87.30;;;;;;4993442;28;20497;-77
2022/08/05 05:06:12;;;;;;;9.00;4.35;;;20.50;87.20;;;;;;4992689;28;20026;-76
2022/08/05 05:08:38;;;;;;;13.35;5.20;;;20.50;87.50;;;;;;4992712;28;20037;-76
2022/08/05 05:11:05;;;;;;;9.40;3.80;;;20.50;87.60;;;;;;4993360;28;20025;-76
2022/08/05 05:13:31;;;;;;;9.68;4.72;;;20.50;87.50;;;;;;4993182;28;20022;-76
2022/08/05 05:15:57;;;;;;;7.25;3.75;;;20.50;87.50;;;;;;4992052;28;20487;-75
2022/08/05 05:18:23;;;;;;;8.35;4.18;;;20.50;87.20;;;;;;4992990;28;20034;-78
2022/08/05 05:20:49;;;;;;;6.65;3.78;;;20.50;87.20;;;;;;4992704;28;20026;-77
2022/08/05 05:23:15;;;;;;;8.07;3.63;;;20.60;87.20;;;;;;4992301;28;20494;-78
2022/08/05 05:25:42;;;;;;;11.95;4.15;;;20.60;87.40;;;;;;4992353;28;20022;-77
2022/08/05 05:28:08;;;;;;;8.10;3.92;;;20.60;87.00;;;;;;4992880;28;20025;-77
2022/08/05 05:30:37;;;;;;;7.75;3.55;;;20.60;86.90;;;;;;4992257;28;20019;-77
2022/08/05 05:33:04;;;;;;;8.27;3.78;;;20.60;86.50;;;;;;4992930;28;20022;-78
2022/08/05 05:35:31;;;;;;;8.95;4.15;;;20.60;86.80;;;;;;4992154;28;20213;-78
2022/08/05 05:38:06;;;;;;;10.30;3.70;;;20.60;86.90;;;;;;4992101;28;20031;-77
2022/08/05 05:40:33;;;;;;;11.43;4.85;;;20.60;86.70;;;;;;4992557;28;20134;-78
2022/08/05 05:42:59;;;;;;;7.70;4.00;;;20.60;86.50;;;;;;4992265;28;20061;-79
2022/08/05 05:45:24;;;;;;;9.55;3.85;;;20.60;86.50;;;;;;4991428;28;20050;-78
2022/08/05 05:47:51;;;;;;;7.32;3.10;;;20.60;86.50;;;;;;4974806;28;20693;-77
2022/08/05 05:50:19;;;;;;;9.85;4.15;;;20.60;86.80;;;;;;4992692;28;20062;-76
2022/08/05 05:52:48;;;;;;;5.80;3.17;;;20.60;86.30;;;;;;4977076;28;20030;-76
2022/08/05 05:55:15;;;;;;;7.63;2.72;;;20.60;86.20;;;;;;4994056;28;20125;-77
2022/08/05 05:57:43;;;;;;;7.43;2.75;;;20.60;86.30;;;;;;4977659;28;20375;-80
2022/08/05 06:00:17;;;;;;;4.80;2.42;;;20.60;86.30;;;;;;4974417;28;20551;-77
2022/08/05 06:02:43;;;;;;;6.82;2.38;;;20.60;85.90;;;;;;4992461;28;20026;-77
2022/08/05 06:05:11;;;;;;;8.93;3.13;;;20.70;86.00;;;;;;4991745;28;20046;-79
2022/08/05 06:07:37;;;;;;;8.18;2.85;;;20.70;85.70;;;;;;4993334;28;20041;-79
2022/08/05 06:10:04;;;;;;;5.43;2.78;;;20.70;85.50;;;;;;4976615;28;20018;-81
2022/08/05 06:12:30;;;;;;;7.80;2.63;;;20.80;85.50;;;;;;4996698;28;20057;-79
2022/08/05 06:14:55;;;;;;;6.88;2.90;;;20.90;85.70;;;;;;4982524;28;20053;-80
2022/08/05 06:17:21;;;;;;;6.28;2.70;;;20.90;85.50;;;;;;4997705;28;20041;-79
2022/08/05 06:19:47;;;;;;;3.53;2.03;;;20.90;85.00;;;;;;4993119;28;20232;-79
2022/08/05 06:22:22;;;;;;;6.72;2.90;;;20.90;84.70;;;;;;4991182;28;20584;-72
2022/08/05 06:24:48;;;;;;;6.40;2.22;;;21.00;84.40;;;;;;4991284;28;20134;-72
2022/08/05 06:27:14;;;;;;;5.57;2.13;;;21.10;83.90;;;;;;4990355;28;20503;-72
2022/08/05 06:29:39;;;;;;;5.97;1.95;;;21.30;82.90;;;;;;4990969;28;20032;-72
2022/08/05 06:32:05;;;;;;;5.47;1.95;;;21.50;80.90;;;;;;4990441;28;20053;-76
2022/08/05 06:34:31;;;;;;;6.75;2.63;;;21.70;81.00;;;;;;4986949;28;20030;-72
2022/08/05 06:36:56;;;;;;;4.82;1.92;;;21.70;80.80;;;;;;4996261;28;20144;-71
2022/08/05 06:39:22;;;;;;;4.57;1.95;;;21.80;80.50;;;;;;4973034;28;20022;-71
2022/08/05 06:41:49;;;;;;;5.20;2.08;;;21.90;80.20;;;;;;4989686;28;20034;-72
2022/08/05 06:44:15;;;;;;;6.38;1.52;;;22.00;80.10;;;;;;4990908;28;20026;-73
2022/08/05 06:46:40;;;;;;;6.03;1.17;;;22.00;80.00;;;;;;4989785;28;20088;-74
2022/08/05 06:49:06;;;;;;;3.70;1.40;;;22.20;75.90;;;;;;4990468;28;20050;-73
2022/08/05 06:51:31;;;;;;;4.30;1.40;;;22.60;73.40;;;;;;4990144;28;20108;-73
2022/08/05 06:53:58;;;;;;;3.90;1.42;;;23.00;71.80;;;;;;4990618;28;20031;-73
2022/08/05 06:56:24;;;;;;;5.88;1.83;;;23.30;70.00;;;;;;4986591;28;20035;-72
2022/08/05 06:58:50;;;;;;;4.45;1.30;;;23.40;70.10;;;;;;4989690;28;20027;-72
2022/08/05 07:01:15;;;;;;;4.72;1.10;;;23.30;69.40;;;;;;4990260;28;20390;-72
2022/08/05 07:03:41;;;;;;;4.78;1.48;;;23.30;69.00;;;;;;4988711;28;20042;-73
2022/08/05 07:06:07;;;;;;;4.75;1.65;;;23.40;68.90;;;;;;4989049;28;20049;-72
2022/08/05 07:08:32;;;;;;;4.55;1.30;;;23.50;68.50;;;;;;4989392;28;20019;-73
2022/08/05 07:10:58;;;;;;;4.40;1.45;;;23.50;68.90;;;;;;4988483;28;20422;-73
2022/08/05 07:18:52;;;;;;;8.57;1.33;;;23.50;67.70;;;;;;4990845;28;20111;-72
2022/08/05 07:21:18;;;;;;;3.90;1.38;;;23.70;67.20;;;;;;4990856;28;20109;-72
2022/08/05 07:23:44;;;;;;;4.25;1.38;;;23.80;67.10;;;;;;4972506;28;20030;-73
2022/08/05 07:26:09;;;;;;;2.70;1.08;;;23.80;67.10;;;;;;4988865;28;20405;-72
2022/08/05 07:28:35;;;;;;;3.72;1.23;;;23.90;67.20;;;;;;4990363;28;20033;-73
2022/08/05 07:31:01;;;;;;;6.13;1.23;;;23.80;66.80;;;;;;4990152;28;20022;-73
2022/08/05 07:33:26;;;;;;;8.88;1.63;;;23.80;66.60;;;;;;4990623;28;20374;-73
2022/08/05 07:35:52;;;;;;;4.50;1.40;;;23.80;66.50;;;;;;4989503;28;20042;-74
2022/08/05 07:38:18;;;;;;;2.60;0.93;;;23.80;66.60;;;;;;4988844;28;20030;-73
2022/08/05 07:40:43;;;;;;;6.68;1.48;;;23.80;66.60;;;;;;4990519;28;20504;-72
2022/08/05 07:43:10;;;;;;;4.30;1.27;;;23.80;66.40;;;;;;4989832;28;20109;-72
2022/08/05 07:45:35;;;;;;;7.45;1.75;;;23.90;66.60;;;;;;4989226;28;20085;-73
2022/08/05 07:48:01;;;;;;;6.03;1.60;;;23.90;65.90;;;;;;4989049;28;20440;-73
2022/08/05 07:50:27;;;;;;;2.47;0.80;;;23.80;66.30;;;;;;4989290;28;20027;-72
2022/08/05 07:52:53;;;;;;;3.72;1.05;;;23.70;66.70;;;;;;4990399;28;20076;-73
2022/08/05 07:55:18;;;;;;;2.75;0.90;;;23.60;67.20;;;;;;4989656;28;20038;-72
2022/08/05 07:57:44;;;;;;;4.15;1.17;;;23.70;66.50;;;;;;4990297;28;20436;-74
2022/08/05 08:00:13;;;;;;;6.40;1.52;;;23.90;66.00;;;;;;4989818;28;20030;-73
2022/08/05 08:02:38;;;;;;;4.22;1.20;;;23.90;66.00;;;;;;4989746;28;20027;-72
2022/08/05 08:05:04;;;;;;;2.42;0.90;;;23.90;65.70;;;;;;4989734;28;20057;-73
2022/08/05 08:07:30;;;;;;;3.72;1.25;;;23.90;65.40;;;;;;4990199;28;20022;-73
2022/08/05 08:09:56;;;;;;;5.63;1.20;;;24.00;65.60;;;;;;4989928;28;20388;-72
2022/08/05 08:12:22;;;;;;;2.55;1.10;;;24.20;64.70;;;;;;4989345;28;20014;-72
2022/08/05 08:14:49;;;;;;;2.78;0.90;;;24.30;63.60;;;;;;4990058;28;20022;-72
2022/08/05 08:17:15;;;;;;;2.30;0.80;;;24.30;64.10;;;;;;4989281;28;20065;-73
2022/08/05 08:19:41;;;;;;;2.97;1.00;;;24.20;64.00;;;;;;4989637;28;20019;-74
2022/08/05 08:22:08;;;;;;;3.45;0.90;;;24.30;64.00;;;;;;4990259;28;20034;-75
2022/08/05 08:24:34;;;;;;;4.30;0.98;;;24.20;63.40;;;;;;4989620;28;20084;-74
2022/08/05 08:27:00;;;;;;;4.22;1.02;;;24.20;63.60;;;;;;4989652;28;20054;-74
2022/08/05 08:29:26;;;;;;;3.22;0.95;;;24.10;64.10;;;;;;4989068;28;20026;-72
2022/08/05 08:31:52;;;;;;;3.38;1.13;;;24.20;64.30;;;;;;4989071;28;20465;-73
2022/08/05 08:34:20;;;;;;;3.45;0.85;;;24.10;63.90;;;;;;4989362;28;20040;-73
2022/08/05 08:36:45;;;;;;;3.40;0.82;;;24.10;64.30;;;;;;4989175;28;20473;-73
2022/08/05 08:39:11;;;;;;;3.13;1.00;;;24.20;64.50;;;;;;4989363;28;20030;-72
2022/08/05 08:41:40;;;;;;;3.28;1.00;;;24.10;64.10;;;;;;4988632;28;20041;-72
2022/08/05 08:44:07;;;;;;;2.53;0.82;;;24.00;64.40;;;;;;4959769;28;20038;-73
2022/08/05 08:46:33;;;;;;;3.42;1.00;;;23.90;64.00;;;;;;4987628;28;20106;-73
2022/08/05 08:49:02;;;;;;;2.38;0.90;;;23.80;64.50;;;;;;4987805;28;20461;-73
2022/08/05 08:51:31;;;;;;;4.45;0.70;;;23.80;64.90;;;;;;4988212;28;20362;-73
2022/08/05 08:53:58;;;;;;;3.80;1.02;;;23.70;65.00;;;;;;4988594;28;20067;-74
2022/08/05 08:56:24;;;;;;;3.60;0.90;;;23.70;65.00;;;;;;4988891;28;20038;-78
2022/08/05 08:58:49;;;;;;;3.70;1.00;;;23.70;65.10;;;;;;4987608;28;20026;-75
2022/08/05 09:01:17;;;;;;;3.47;1.20;;;23.60;63.70;;;;;;4989681;28;20054;-76
2022/08/05 09:03:48;;;;;;;3.20;0.90;;;23.50;64.90;;;;;;4989756;28;20054;-76
2022/08/05 09:06:14;;;;;;;2.85;0.95;;;23.40;65.30;;;;;;4990578;28;20030;-77
2022/08/05 09:08:40;;;;;;;4.00;1.13;;;23.40;64.70;;;;;;4990274;28;20023;-76
2022/08/05 09:11:07;;;;;;;3.78;1.00;;;23.30;65.80;;;;;;4986487;28;20093;-76
2022/08/05 09:13:34;;;;;;;3.22;1.08;;;23.10;63.80;;;;;;4986062;28;20469;-76
2022/08/05 09:16:00;;;;;;;3.28;1.23;;;23.10;66.50;;;;;;4986476;28;20030;-77
2022/08/05 09:18:26;;;;;;;3.42;0.98;;;23.10;64.00;;;;;;4985842;28;20054;-76
2022/08/05 09:20:52;;;;;;;4.05;1.17;;;23.20;63.10;;;;;;4986291;28;20023;-75
2022/08/05 09:23:19;;;;;;;3.05;1.00;;;23.30;63.30;;;;;;4986664;28;20033;-75
2022/08/05 09:26:06;;;;;;;3.15;0.70;;;23.30;64.30;;;;;;4988007;28;20030;-75
2022/08/05 09:28:33;;;;;;;4.72;1.08;;;23.40;62.30;;;;;;4988483;28;20093;-76
2022/08/05 09:31:04;;;;;;;2.83;0.70;;;23.40;60.50;;;;;;4992773;28;20053;-76
2022/08/05 09:33:30;;;;;;;6.63;0.93;;;23.40;59.00;;;;;;4992992;28;20065;-77
2022/08/05 09:36:04;;;;;;;3.33;0.70;;;23.50;58.30;;;;;;4992511;28;20034;-77
2022/08/05 09:38:31;;;;;;;1.80;0.98;;;23.70;58.50;;;;;;4992895;28;20088;-76
2022/08/05 09:41:06;;;;;;;2.03;0.55;;;23.90;57.20;;;;;;4993040;28;20034;-77
2022/08/05 09:43:34;;;;;;;2.47;0.60;;;24.20;60.80;;;;;;4975319;28;20049;-77
2022/08/05 09:46:00;;;;;;;4.20;0.52;;;24.30;58.50;;;;;;4973295;28;20041;-77
2022/08/05 09:48:32;;;;;;;1.40;0.50;;;24.50;55.70;;;;;;4989631;28;20527;-75
2022/08/05 09:51:03;;;;;;;3.65;0.63;;;24.90;57.10;;;;;;4989193;28;20031;-75
2022/08/05 09:53:30;;;;;;;1.92;0.50;;;25.20;58.30;;;;;;4987631;28;20022;-73
2022/08/05 09:55:58;;;;;;;2.17;0.50;;;25.60;52.70;;;;;;4990313;28;20038;-76
2022/08/05 09:58:25;;;;;;;1.95;0.77;;;25.70;51.60;;;;;;4990940;28;20018;-76
2022/08/05 10:01:01;;;;;;;3.83;0.50;;;25.80;50.10;;;;;;4990823;28;20025;-77
2022/08/05 10:03:28;;;;;;;5.13;0.82;;;25.70;50.30;;;;;;4989212;28;20053;-75
2022/08/05 10:06:08;;;;;;;1.85;0.88;;;25.60;54.00;;;;;;4990963;28;20038;-76
2022/08/05 10:08:38;;;;;;;2.38;0.82;;;25.30;55.20;;;;;;4982297;28;20121;-76
2022/08/05 10:11:17;;;;;;;2.22;0.45;;;25.20;53.30;;;;;;4987505;28;20031;-76
2022/08/05 10:13:43;;;;;;;4.53;1.33;;;25.10;57.20;;;;;;4990952;28;20027;-75
2022/08/05 10:16:33;;;;;;;1.45;0.40;;;25.00;52.50;;;;;;4990395;28;20035;-75
2022/08/05 10:19:00;;;;;;;1.65;0.40;;;25.40;52.20;;;;;;4990372;28;20476;-77
2022/08/05 10:21:26;;;;;;;1.77;0.60;;;25.80;51.80;;;;;;4990389;28;20094;-75
2022/08/05 10:23:52;;;;;;;3.85;0.47;;;26.10;48.50;;;;;;4991114;28;20026;-75
2022/08/05 10:26:18;;;;;;;2.95;0.73;;;26.00;51.70;;;;;;4990516;28;20052;-76
2022/08/05 10:28:45;;;;;;;2.53;0.50;;;25.80;49.30;;;;;;4990982;28;20088;-77
2022/08/05 10:31:13;;;;;;;5.00;0.77;;;25.90;51.00;;;;;;4986051;28;20054;-76
2022/08/05 10:33:40;;;;;;;2.10;0.52;;;26.00;55.10;;;;;;4989671;28;20026;-75
2022/08/05 10:36:05;;;;;;;2.03;0.40;;;26.10;50.80;;;;;;4986144;28;20034;-76
2022/08/05 10:38:33;;;;;;;2.58;0.40;;;26.20;50.50;;;;;;4990013;28;20040;-76
2022/08/05 10:41:16;;;;;;;3.92;0.55;;;26.20;47.80;;;;;;4989124;28;20030;-75
2022/08/05 10:44:04;;;;;;;2.22;0.55;;;26.00;48.30;;;;;;4988616;28;20026;-76
2022/08/05 10:46:50;;;;;;;3.55;0.28;;;26.00;49.10;;;;;;4971254;28;20034;-76
2022/08/05 10:49:16;;;;;;;2.92;0.70;;;26.00;49.00;;;;;;4985161;28;20034;-76
2022/08/05 10:51:48;;;;;;;1.98;0.47;;;26.00;47.80;;;;;;4988887;28;20500;-76
2022/08/05 10:54:15;;;;;;;5.75;0.93;;;26.00;50.90;;;;;;4989798;28;20555;-75
2022/08/05 10:56:47;;;;;;;4.43;0.60;;;26.00;46.30;;;;;;4988996;28;20041;-77
2022/08/05 10:59:18;;;;;;;4.13;0.70;;;26.00;46.40;;;;;;4991114;28;20022;-73
2022/08/05 11:01:45;;;;;;;1.27;0.40;;;26.10;53.30;;;;;;4991349;28;20373;-76
2022/08/05 11:04:16;;;;;;;3.05;0.68;;;26.00;46.60;;;;;;4990500;28;20089;-75
2022/08/05 11:07:03;;;;;;;0.77;0.40;;;26.10;55.60;;;;;;4973766;28;20026;-78
2022/08/05 11:09:41;;;;;;;1.55;0.45;;;26.30;44.10;;;;;;4991091;28;20034;-76
2022/08/05 11:12:25;;;;;;;2.33;0.43;;;26.60;51.40;;;;;;4991045;28;20539;-75
2022/08/05 11:15:07;;;;;;;4.60;0.60;;;27.00;54.00;;;;;;4988267;28;20137;-76
2022/08/05 11:17:38;;;;;;;2.38;0.40;;;26.80;44.40;;;;;;4987330;28;20717;-76
2022/08/05 11:20:07;;;;;;;1.70;0.40;;;26.70;47.50;;;;;;4969328;28;20516;-75
2022/08/05 11:22:49;;;;;;;1.70;0.40;;;26.60;48.60;;;;;;4982435;28;20015;-77
2022/08/05 11:25:42;;;;;;;2.05;0.52;;;26.60;43.00;;;;;;4989193;28;20022;-75
2022/08/05 11:28:11;;;;;;;1.58;0.47;;;26.40;42.30;;;;;;4986350;28;20370;-75
2022/08/05 11:31:00;;;;;;;4.45;0.77;;;26.20;39.80;;;;;;4989403;28;20341;-74
2022/08/05 11:33:27;;;;;;;3.13;0.40;;;26.10;45.60;;;;;;4987608;28;20106;-76
2022/08/05 11:35:58;;;;;;;2.72;0.40;;;25.90;42.30;;;;;;4984272;28;20045;-75
2022/08/05 11:38:47;;;;;;;2.92;0.80;;;25.80;42.00;;;;;;4951043;28;20042;-74
2022/08/05 11:41:12;;;;;;;3.20;0.40;;;25.80;43.10;;;;;;4968792;28;20031;-75
2022/08/05 11:43:41;;;;;;;2.30;0.50;;;25.70;42.10;;;;;;4969031;28;20027;-75
2022/08/05 11:46:07;;;;;;;2.15;0.52;;;25.80;42.60;;;;;;4968802;28;20053;-76
2022/08/05 11:48:40;;;;;;;2.55;0.60;;;25.80;51.90;;;;;;4971885;28;20473;-77
2022/08/05 11:51:06;;;;;;;1.83;0.50;;;25.90;48.60;;;;;;4971236;28;20035;-76
2022/08/05 11:53:33;;;;;;;2.25;0.45;;;25.90;44.30;;;;;;4970066;28;20105;-75
2022/08/05 11:56:00;;;;;;;3.65;0.63;;;26.10;52.50;;;;;;4968751;28;20046;-76
2022/08/05 11:58:40;;;;;;;3.40;0.70;;;26.30;44.90;;;;;;4989299;28;20173;-76
2022/08/05 12:01:08;;;;;;;1.52;0.40;;;26.40;43.30;;;;;;4990289;28;20033;-75
2022/08/05 12:03:53;;;;;;;1.70;0.50;;;26.60;51.60;;;;;;4990674;28;20061;-77
2022/08/05 12:06:21;;;;;;;1.75;0.47;;;26.60;44.10;;;;;;4990281;28;20027;-76
2022/08/05 12:08:51;;;;;;;1.45;0.40;;;26.50;46.50;;;;;;4990407;28;20551;-76
2022/08/05 12:11:29;;;;;;;2.30;0.40;;;26.50;43.50;;;;;;4967615;28;20104;-74
2022/08/05 12:14:07;;;;;;;3.13;0.63;;;26.30;41.00;;;;;;4986582;28;20397;-74
2022/08/05 12:16:38;;;;;;;2.28;0.50;;;26.20;42.50;;;;;;4985053;28;20050;-74
2022/08/05 12:19:05;;;;;;;2.80;0.60;;;26.00;41.20;;;;;;4985704;28;20042;-74
2022/08/05 12:21:33;;;;;;;3.72;0.98;;;25.80;39.00;;;;;;4987217;28;20026;-75
2022/08/05 12:24:09;;;;;;;6.15;0.60;;;25.80;39.70;;;;;;4968765;28;20034;-76
2022/08/05 12:26:42;;;;;;;0.68;0.50;;;25.80;39.00;;;;;;4985972;28;20448;-75
2022/08/05 12:29:14;;;;;;;3.42;0.60;;;25.70;39.30;;;;;;4987050;28;20089;-76
2022/08/05 12:31:47;;;;;;;2.83;0.55;;;25.60;38.50;;;;;;4986493;28;20547;-77
2022/08/05 12:34:15;;;;;;;2.67;0.30;;;25.60;38.80;;;;;;4984374;28;20034;-76
2022/08/05 12:36:42;;;;;;;2.35;0.40;;;25.60;41.80;;;;;;4988589;28;20041;-76
2022/08/05 12:39:09;;;;;;;1.33;0.30;;;25.70;43.30;;;;;;4986942;28;20022;-76
2022/08/05 12:41:39;;;;;;;3.20;0.50;;;25.80;37.60;;;;;;4985868;28;20022;-77
2022/08/05 12:44:12;;;;;;;3.80;0.73;;;25.80;38.00;;;;;;4986399;28;20806;-78
2022/08/05 12:46:40;;;;;;;1.38;0.50;;;25.70;37.80;;;;;;4986999;28;20041;-76
2022/08/05 12:49:13;;;;;;;2.38;0.45;;;25.60;45.60;;;;;;4987213;28;20109;-77
2022/08/05 12:51:51;;;;;;;0.43;0.30;;;25.70;46.70;;;;;;4986451;28;20065;-76
2022/08/05 12:54:22;;;;;;;1.90;0.40;;;25.80;43.90;;;;;;4985755;28;20019;-78
2022/08/05 12:56:53;;;;;;;2.10;0.68;;;25.60;41.60;;;;;;4985804;28;20038;-77
2022/08/05 12:59:22;;;;;;;2.38;0.40;;;25.50;41.90;;;;;;4986043;28;20029;-75